Portada
METAR-TAF:

METAR-TAF

Aeroports :

Lusaka, Zàmbia

latitud: 15-19-51S, longitud: 028-27-09E, altitud: 1152 m

Observació

L'informe es va fer fa 50 minuts, a les 09:00 UTC
Vent 9 kt del Sud-Est
Temperatura 31°C
Humitat 18%
Pressió 1020 hPa
Visibilitat 10 km o més
sense núvols per sota de 1500 mi sense presència de cumulonimbus.

METAR: FLKK 240900Z 13009KT CAVOK 31/04 Q1020

Hora: 11:50 (09:50 UTC)

Pronòstic

L'informe es va fer fa 5 hores i 50 minuts, a les 04:00 UTC
Pronòstic vàlid del 24 a les 06 UTC al 25 a les 12 UTC
Vent 15 kt del Est
Visibilitat: 9000 m
Evolucionant progressivament
l' 24 a les 12 UTC al 24 a les 14 UTC
Vent 10 kt del Sud/Sud-Est
A partir de les 24 a les 1600 UTC
Vent 5 kt del Sud/Sud-Est
Visibilitat 10 km o més
sense núvols per sota de 1500 mi sense presència de cumulonimbus.

TAF: FLKK 240400Z 2406/2512 10015KT 9000 NSC BECMG 2412/2414 16010KT FM241600 15005KT CAVOK

Observacions i pronòstics meteorològics de més de 4000 aeroports (METAR i TAF).

Les estacions disponibles són els punts grocs i vermells al mapa.

Posi el ratolí al punt desitjat per veure el nom de l'estació.

Feu clic per veure les observacions i els pronòstics meteorològics.

Per canviar el mapa: feu clic els botons verds amb una creu de color negre per apropar; al botó verd amb un guió per allunyar la imatge; o en les fletxes verdes per a mapes adjacents.


METAR-TAF: